createdAt,value
2022-12-27T00:00:46.156Z,7.67
2022-12-27T00:01:46.122Z,7.71
2022-12-27T00:02:46.100Z,7.71
2022-12-27T00:03:46.067Z,7.69
2022-12-27T00:04:46.043Z,7.66
2022-12-27T00:05:46.076Z,7.62
2022-12-27T00:06:46.018Z,7.66
2022-12-27T00:07:46.091Z,7.54
2022-12-27T00:08:45.992Z,7.52
2022-12-27T00:09:45.987Z,7.54
2022-12-27T00:10:46.080Z,7.45
2022-12-27T00:11:45.988Z,7.42
2022-12-27T00:12:45.949Z,7.41
2022-12-27T00:13:45.941Z,7.37
2022-12-27T00:14:45.952Z,7.44
2022-12-27T00:15:45.918Z,7.37
2022-12-27T00:16:46.022Z,7.26
2022-12-27T00:17:45.899Z,7.23
2022-12-27T00:18:45.889Z,7.30
2022-12-27T00:19:45.868Z,7.30
2022-12-27T00:20:45.895Z,7.27
2022-12-27T00:21:45.869Z,7.12
2022-12-27T00:22:45.949Z,7.14
2022-12-27T00:23:45.836Z,7.16
2022-12-27T00:24:45.831Z,7.08
2022-12-27T00:25:45.809Z,7.08
2022-12-27T00:26:45.808Z,7.00
2022-12-27T00:27:45.823Z,7.00
2022-12-27T00:28:45.848Z,6.89
2022-12-27T00:29:45.777Z,6.96
2022-12-27T00:30:45.790Z,6.83
2022-12-27T00:31:45.773Z,6.83
2022-12-27T00:32:45.765Z,6.86
2022-12-27T00:33:45.786Z,6.90
2022-12-27T00:34:45.720Z,6.81
2022-12-27T00:35:45.834Z,6.69
2022-12-27T00:36:45.699Z,6.63
2022-12-27T00:37:45.786Z,6.54
2022-12-27T00:38:45.674Z,6.48
2022-12-27T00:39:45.672Z,6.36
2022-12-27T00:40:45.702Z,6.24
2022-12-27T00:41:45.660Z,6.19
2022-12-27T00:42:45.664Z,6.10
2022-12-27T00:43:45.624Z,5.98
2022-12-27T00:44:45.613Z,5.96
2022-12-27T00:45:45.773Z,5.78
2022-12-27T00:46:45.583Z,5.74
2022-12-27T00:47:45.576Z,5.62
2022-12-27T00:48:45.646Z,5.45
2022-12-27T00:49:45.585Z,5.33
2022-12-27T00:50:45.559Z,5.41
2022-12-27T00:51:45.542Z,5.24
2022-12-27T00:52:45.534Z,5.11
2022-12-27T00:53:45.537Z,4.96
2022-12-27T00:54:45.539Z,4.87
2022-12-27T00:55:45.499Z,4.83
2022-12-27T00:56:45.472Z,4.75
2022-12-27T00:57:45.478Z,4.62
2022-12-27T00:58:45.478Z,4.59
2022-12-27T00:59:45.447Z,4.46
2022-12-27T01:00:45.486Z,4.42
2022-12-27T01:01:45.622Z,4.38
2022-12-27T01:02:45.411Z,4.24
2022-12-27T01:03:45.438Z,4.18
2022-12-27T01:04:45.465Z,4.14
2022-12-27T01:05:45.388Z,4.16
2022-12-27T01:06:45.391Z,4.11
2022-12-27T01:07:45.360Z,4.20
2022-12-27T01:08:45.367Z,4.06
2022-12-27T01:09:45.504Z,4.11
2022-12-27T01:10:45.330Z,3.88
2022-12-27T01:11:45.332Z,3.93
2022-12-27T01:12:45.304Z,3.95
2022-12-27T01:13:45.302Z,4.00
2022-12-27T01:14:45.283Z,4.10
2022-12-27T01:15:45.358Z,4.16
2022-12-27T01:16:45.326Z,4.20
2022-12-27T01:17:45.391Z,4.29
2022-12-27T01:18:45.238Z,4.42
2022-12-27T01:19:45.252Z,4.43
2022-12-27T01:20:45.271Z,4.21
2022-12-27T01:21:45.246Z,4.14
2022-12-27T01:22:45.261Z,4.14
2022-12-27T01:23:45.215Z,4.08
2022-12-27T01:24:45.198Z,4.10
2022-12-27T01:25:45.174Z,4.06
2022-12-27T01:26:45.180Z,4.00
2022-12-27T01:27:45.153Z,4.02
2022-12-27T01:28:45.249Z,4.07
2022-12-27T01:29:45.120Z,4.02
2022-12-27T01:30:45.134Z,3.92
2022-12-27T01:31:45.194Z,3.96
2022-12-27T01:32:45.118Z,3.88
2022-12-27T01:33:45.106Z,3.80
2022-12-27T01:34:45.073Z,3.78
2022-12-27T01:35:45.075Z,3.68
2022-12-27T01:36:45.145Z,3.57
2022-12-27T01:37:45.075Z,3.52
2022-12-27T01:38:45.045Z,3.35
2022-12-27T01:39:45.102Z,3.37
2022-12-27T01:40:45.025Z,3.22
2022-12-27T01:41:45.019Z,3.13
2022-12-27T01:42:44.998Z,3.15
2022-12-27T01:43:44.976Z,3.07
2022-12-27T01:44:44.962Z,3.08
2022-12-27T01:45:45.067Z,3.17
2022-12-27T01:46:44.946Z,3.10
2022-12-27T01:47:44.942Z,3.19
2022-12-27T01:48:44.921Z,3.23
2022-12-27T01:49:44.920Z,3.42
2022-12-27T01:50:44.926Z,3.57
2022-12-27T01:51:45.007Z,3.57
2022-12-27T01:52:44.917Z,3.45
2022-12-27T01:53:44.875Z,3.57
2022-12-27T01:54:44.866Z,3.95
2022-12-27T01:55:44.991Z,4.11
2022-12-27T01:56:44.843Z,4.49
2022-12-27T01:57:44.845Z,4.51
2022-12-27T01:58:44.920Z,4.49
2022-12-27T01:59:44.801Z,4.50
2022-12-27T02:00:44.833Z,4.64
2022-12-27T02:01:45.003Z,4.57
2022-12-27T02:02:44.947Z,4.65
2022-12-27T02:03:44.765Z,4.50
2022-12-27T02:04:44.867Z,4.64
2022-12-27T02:05:44.760Z,4.47
2022-12-27T02:06:44.726Z,4.57
2022-12-27T02:07:44.722Z,4.61
2022-12-27T02:08:44.710Z,4.59
2022-12-27T02:09:44.704Z,4.51
2022-12-27T02:10:44.746Z,4.62
2022-12-27T02:11:44.694Z,4.62
2022-12-27T02:12:44.663Z,4.50
2022-12-27T02:13:44.665Z,4.34
2022-12-27T02:14:44.654Z,4.43
2022-12-27T02:15:44.654Z,4.46
2022-12-27T02:16:44.643Z,4.59
2022-12-27T02:17:44.824Z,4.61
2022-12-27T02:18:44.635Z,4.64
2022-12-27T02:19:44.607Z,4.75
2022-12-27T02:20:44.611Z,4.71
2022-12-27T02:21:44.586Z,4.68
2022-12-27T02:22:44.576Z,4.59
2022-12-27T02:23:44.544Z,4.67
2022-12-27T02:24:44.528Z,4.61
2022-12-27T02:25:44.569Z,4.47
2022-12-27T02:26:44.538Z,4.53
2022-12-27T02:27:44.623Z,4.46
2022-12-27T02:28:44.509Z,4.47
2022-12-27T02:29:44.505Z,4.36
2022-12-27T02:30:44.548Z,4.46
2022-12-27T02:31:44.472Z,4.32
2022-12-27T02:32:44.491Z,4.32
2022-12-27T02:33:44.454Z,4.28
2022-12-27T02:34:44.526Z,4.24
2022-12-27T02:35:44.538Z,4.28
2022-12-27T02:36:44.424Z,4.10
2022-12-27T02:37:44.454Z,4.07
2022-12-27T02:38:44.389Z,4.13
2022-12-27T02:39:44.387Z,4.17
2022-12-27T02:40:44.434Z,4.06
2022-12-27T02:41:44.355Z,4.14
2022-12-27T02:42:44.344Z,4.18
2022-12-27T02:43:44.356Z,4.20
2022-12-27T02:44:44.386Z,4.18
2022-12-27T02:45:44.409Z,4.10
2022-12-27T02:46:44.303Z,4.08
2022-12-27T02:47:44.292Z,4.11
2022-12-27T02:48:44.280Z,4.11
2022-12-27T02:49:44.267Z,4.16
2022-12-27T02:50:44.267Z,4.11
2022-12-27T02:51:44.296Z,4.14
2022-12-27T02:52:44.248Z,4.13
2022-12-27T02:53:44.226Z,4.21
2022-12-27T02:54:44.217Z,4.16
2022-12-27T02:55:44.253Z,4.16
2022-12-27T02:56:44.192Z,4.11
2022-12-27T02:57:44.186Z,4.07
2022-12-27T02:58:44.181Z,3.90
2022-12-27T02:59:44.167Z,3.92
2022-12-27T03:00:44.212Z,3.77
2022-12-27T03:01:44.297Z,3.52
2022-12-27T03:02:44.288Z,3.56
2022-12-27T03:03:44.889Z,3.62
2022-12-27T03:04:44.116Z,3.86
2022-12-27T03:05:44.141Z,3.95
2022-12-27T03:06:44.088Z,3.81
2022-12-27T03:07:44.160Z,3.96
2022-12-27T03:08:44.084Z,3.96
2022-12-27T03:09:44.059Z,3.88
2022-12-27T03:10:44.063Z,3.71
2022-12-27T03:11:44.027Z,3.80
2022-12-27T03:12:44.059Z,3.64
2022-12-27T03:13:44.011Z,3.96
2022-12-27T03:14:44.004Z,3.99
2022-12-27T03:15:44.083Z,4.11
2022-12-27T03:16:43.973Z,4.06
2022-12-27T03:17:43.986Z,4.11
2022-12-27T03:18:43.955Z,4.24
2022-12-27T03:19:43.943Z,4.28
2022-12-27T03:20:44.183Z,4.28
2022-12-27T03:21:43.930Z,4.32
2022-12-27T03:22:43.915Z,4.44
2022-12-27T03:23:43.913Z,4.35
2022-12-27T03:24:43.933Z,4.35
2022-12-27T03:25:43.928Z,4.39
2022-12-27T03:26:43.870Z,4.44
2022-12-27T03:27:43.874Z,4.50
2022-12-27T03:28:43.871Z,4.47
2022-12-27T03:29:43.839Z,4.47
2022-12-27T03:30:43.879Z,4.53
2022-12-27T03:31:43.833Z,4.47
2022-12-27T03:32:43.820Z,4.47
2022-12-27T03:33:43.848Z,4.49
2022-12-27T03:34:43.784Z,4.47
2022-12-27T03:35:43.806Z,4.47
2022-12-27T03:36:43.788Z,4.43
2022-12-27T03:37:43.755Z,4.38
2022-12-27T03:38:43.745Z,4.32
2022-12-27T03:39:43.796Z,4.35
2022-12-27T03:40:43.726Z,4.35
2022-12-27T03:41:43.716Z,4.34
2022-12-27T03:42:43.699Z,4.29
2022-12-27T03:43:43.688Z,4.28
2022-12-27T03:44:43.699Z,4.24
2022-12-27T03:45:43.705Z,4.24
2022-12-27T03:46:43.792Z,4.20
2022-12-27T03:47:43.650Z,4.20
2022-12-27T03:48:43.633Z,4.24
2022-12-27T03:49:43.651Z,4.36
2022-12-27T03:50:43.645Z,4.34
2022-12-27T03:51:43.691Z,4.35
2022-12-27T03:52:43.615Z,4.43
2022-12-27T03:53:43.593Z,4.35
2022-12-27T03:54:43.579Z,4.43
2022-12-27T03:55:43.581Z,4.31
2022-12-27T03:56:43.564Z,4.26
2022-12-27T03:57:43.538Z,4.18
2022-12-27T03:58:43.527Z,4.16
2022-12-27T03:59:43.572Z,4.16
2022-12-27T04:00:43.542Z,4.13
2022-12-27T04:01:43.604Z,4.04
2022-12-27T04:02:43.683Z,4.04
2022-12-27T04:03:43.483Z,4.02
2022-12-27T04:04:43.463Z,4.08
2022-12-27T04:05:43.514Z,3.98
2022-12-27T04:06:43.449Z,3.98
2022-12-27T04:07:43.431Z,3.99
2022-12-27T04:08:43.419Z,4.04
2022-12-27T04:09:43.420Z,4.04
2022-12-27T04:10:43.419Z,3.96
2022-12-27T04:11:43.442Z,4.04
2022-12-27T04:12:43.397Z,4.08
2022-12-27T04:13:43.374Z,4.07
2022-12-27T04:14:43.361Z,4.08
2022-12-27T04:15:43.414Z,4.18
2022-12-27T04:16:43.365Z,4.11
2022-12-27T04:17:43.327Z,4.11
2022-12-27T04:18:43.328Z,4.07
2022-12-27T04:19:43.317Z,4.14
2022-12-27T04:20:43.296Z,4.16
2022-12-27T04:21:43.325Z,4.20
2022-12-27T04:22:43.275Z,4.14
2022-12-27T04:23:43.270Z,4.17
2022-12-27T04:24:43.261Z,4.25
2022-12-27T04:25:43.251Z,4.25
2022-12-27T04:26:43.245Z,4.24
2022-12-27T04:27:43.228Z,4.18
2022-12-27T04:28:43.208Z,4.28
2022-12-27T04:29:43.360Z,4.25
2022-12-27T04:30:43.183Z,4.26
2022-12-27T04:31:43.190Z,4.20
2022-12-27T04:32:43.203Z,4.25
2022-12-27T04:33:43.159Z,4.35
2022-12-27T04:34:43.143Z,4.39
2022-12-27T04:35:43.180Z,4.35
2022-12-27T04:36:43.123Z,4.34
2022-12-27T04:37:43.139Z,4.34
2022-12-27T04:38:43.125Z,4.29
2022-12-27T04:39:43.136Z,4.34
2022-12-27T04:40:43.110Z,4.24
2022-12-27T04:41:43.089Z,4.28
2022-12-27T04:42:43.071Z,4.20
2022-12-27T04:43:43.069Z,4.21
2022-12-27T04:44:43.038Z,4.17
2022-12-27T04:45:43.050Z,4.17
2022-12-27T04:46:43.071Z,4.20
2022-12-27T04:47:43.008Z,4.13
2022-12-27T04:48:43.009Z,4.14
2022-12-27T04:49:43.000Z,4.13
2022-12-27T04:50:43.040Z,4.14
2022-12-27T04:51:42.985Z,4.06
2022-12-27T04:52:42.954Z,4.14
2022-12-27T04:53:42.975Z,4.08
2022-12-27T04:54:42.941Z,4.06
2022-12-27T04:55:42.949Z,4.04
2022-12-27T04:56:42.924Z,4.08
2022-12-27T04:57:42.907Z,4.06
2022-12-27T04:58:42.930Z,4.06
2022-12-27T04:59:42.883Z,3.99
2022-12-27T05:00:42.890Z,4.07
2022-12-27T05:01:42.963Z,4.04
2022-12-27T05:02:43.030Z,4.08
2022-12-27T05:03:43.004Z,4.04
2022-12-27T05:04:42.851Z,4.02
2022-12-27T05:05:42.865Z,4.04
2022-12-27T05:06:42.830Z,4.04
2022-12-27T05:07:42.796Z,4.00
2022-12-27T05:08:42.785Z,3.98
2022-12-27T05:09:42.797Z,3.98
2022-12-27T05:10:43.163Z,4.04
2022-12-27T05:11:42.755Z,3.93
2022-12-27T05:12:42.749Z,3.95
2022-12-27T05:13:42.726Z,4.06
2022-12-27T05:14:42.744Z,4.06
2022-12-27T05:15:42.807Z,4.00
2022-12-27T05:16:42.691Z,4.13
2022-12-27T05:17:42.715Z,3.99
2022-12-27T05:18:42.686Z,4.08
2022-12-27T05:19:42.721Z,4.13
2022-12-27T05:20:42.653Z,4.10
2022-12-27T05:21:42.660Z,4.04
2022-12-27T05:22:42.666Z,4.06
2022-12-27T05:23:42.634Z,4.11
2022-12-27T05:24:42.633Z,4.10
2022-12-27T05:25:42.642Z,4.14
2022-12-27T05:26:42.615Z,4.14
2022-12-27T05:27:42.590Z,4.14
2022-12-27T05:28:42.573Z,4.13
2022-12-27T05:29:42.558Z,4.08
2022-12-27T05:30:42.544Z,4.10
2022-12-27T05:31:42.661Z,4.16
2022-12-27T05:32:42.523Z,4.11
2022-12-27T05:33:42.519Z,4.14
2022-12-27T05:34:42.506Z,4.02
2022-12-27T05:35:42.491Z,4.11
2022-12-27T05:36:42.491Z,4.16
2022-12-27T05:37:42.500Z,4.08
2022-12-27T05:38:42.454Z,4.10
2022-12-27T05:39:42.448Z,4.06
2022-12-27T05:40:42.433Z,4.06
2022-12-27T05:41:42.477Z,4.11
2022-12-27T05:42:42.423Z,4.16
2022-12-27T05:43:42.423Z,4.14
2022-12-27T05:44:42.401Z,4.11
2022-12-27T05:45:42.383Z,4.04
2022-12-27T05:46:42.427Z,4.08
2022-12-27T05:47:42.366Z,4.07
2022-12-27T05:48:42.350Z,4.02
2022-12-27T05:49:42.390Z,4.13
2022-12-27T05:50:42.336Z,4.06
2022-12-27T05:51:42.355Z,4.08
2022-12-27T05:52:42.312Z,4.11
2022-12-27T05:53:42.319Z,4.07
2022-12-27T05:54:42.293Z,4.02
2022-12-27T05:55:42.289Z,4.07
2022-12-27T05:56:42.287Z,4.07
2022-12-27T05:57:42.285Z,4.02
2022-12-27T05:58:42.266Z,4.13
2022-12-27T05:59:42.240Z,4.11
2022-12-27T06:00:42.244Z,3.98
2022-12-27T06:01:42.368Z,4.06
2022-12-27T06:02:42.732Z,4.07
2022-12-27T06:03:42.194Z,4.06
2022-12-27T06:04:42.203Z,4.02
2022-12-27T06:05:42.171Z,4.06
2022-12-27T06:06:42.176Z,4.13
2022-12-27T06:07:42.163Z,4.00
2022-12-27T06:08:42.163Z,4.10
2022-12-27T06:09:42.139Z,4.06
2022-12-27T06:10:42.138Z,4.08
2022-12-27T06:11:42.174Z,4.08
2022-12-27T06:12:42.132Z,4.07
2022-12-27T06:13:42.109Z,4.00
2022-12-27T06:14:42.171Z,4.02
2022-12-27T06:15:42.065Z,4.07
2022-12-27T06:16:42.106Z,3.98
2022-12-27T06:17:42.091Z,4.00
2022-12-27T06:18:42.069Z,4.04
2022-12-27T06:19:42.042Z,4.10
2022-12-27T06:20:42.011Z,4.06
2022-12-27T06:21:42.005Z,4.11
2022-12-27T06:22:42.004Z,4.02
2022-12-27T06:23:42.018Z,4.08
2022-12-27T06:24:41.968Z,4.10
2022-12-27T06:25:41.966Z,4.08
2022-12-27T06:26:41.973Z,3.98
2022-12-27T06:27:41.943Z,4.10
2022-12-27T06:28:41.937Z,4.07
2022-12-27T06:29:41.943Z,4.06
2022-12-27T06:30:41.912Z,3.98
2022-12-27T06:31:41.968Z,3.96
2022-12-27T06:32:41.902Z,3.99
2022-12-27T06:33:41.873Z,3.95
2022-12-27T06:34:41.867Z,4.04
2022-12-27T06:35:41.857Z,3.96
2022-12-27T06:36:41.859Z,3.96
2022-12-27T06:37:41.872Z,4.00
2022-12-27T06:38:41.833Z,3.93
2022-12-27T06:39:41.806Z,3.98
2022-12-27T06:40:41.805Z,3.89
2022-12-27T06:41:41.817Z,3.77
2022-12-27T06:42:41.779Z,3.88
2022-12-27T06:43:41.774Z,3.78
2022-12-27T06:44:41.773Z,3.81
2022-12-27T06:45:41.772Z,3.96
2022-12-27T06:46:41.753Z,3.93
2022-12-27T06:47:41.724Z,3.96
2022-12-27T06:48:41.710Z,3.90
2022-12-27T06:49:41.709Z,3.90
2022-12-27T06:50:41.698Z,3.92
2022-12-27T06:51:41.742Z,3.95
2022-12-27T06:52:41.678Z,4.06
2022-12-27T06:53:41.668Z,3.96
2022-12-27T06:54:41.660Z,4.07
2022-12-27T06:55:41.667Z,4.10
2022-12-27T06:56:41.646Z,4.04
2022-12-27T06:57:41.626Z,4.02
2022-12-27T06:58:41.650Z,3.96
2022-12-27T06:59:41.604Z,3.90
2022-12-27T07:00:41.592Z,3.93
2022-12-27T07:01:41.864Z,3.93
2022-12-27T07:02:41.697Z,3.95
2022-12-27T07:03:41.562Z,3.96
2022-12-27T07:04:41.544Z,3.96
2022-12-27T07:05:41.535Z,3.93
2022-12-27T07:06:41.601Z,3.86
2022-12-27T07:07:41.516Z,3.98
2022-12-27T07:08:41.504Z,3.98
2022-12-27T07:09:41.492Z,3.92
2022-12-27T07:10:41.483Z,3.90
2022-12-27T07:11:41.499Z,3.93
2022-12-27T07:12:41.504Z,3.82
2022-12-27T07:13:41.461Z,3.82
2022-12-27T07:14:41.451Z,3.90
2022-12-27T07:15:41.439Z,3.93
2022-12-27T07:16:41.439Z,3.84
2022-12-27T07:17:41.425Z,3.93
2022-12-27T07:18:41.399Z,3.92
2022-12-27T07:19:41.385Z,3.98
2022-12-27T07:20:41.393Z,3.93
2022-12-27T07:21:41.385Z,3.98
2022-12-27T07:22:41.349Z,3.96
2022-12-27T07:23:41.343Z,3.99
2022-12-27T07:24:41.344Z,4.07
2022-12-27T07:25:41.315Z,4.06
2022-12-27T07:26:41.324Z,4.02
2022-12-27T07:27:41.319Z,4.07
2022-12-27T07:28:41.325Z,4.07
2022-12-27T07:29:45.549Z,3.98
2022-12-27T07:30:41.275Z,4.04
2022-12-27T07:31:41.285Z,3.98
2022-12-27T07:32:41.259Z,4.04
2022-12-27T07:33:41.257Z,3.96
2022-12-27T07:34:41.225Z,4.06
2022-12-27T07:35:45.047Z,4.02
2022-12-27T07:36:41.239Z,4.08
2022-12-27T07:37:41.191Z,4.04
2022-12-27T07:38:41.184Z,4.06
2022-12-27T07:39:41.167Z,4.04
2022-12-27T07:40:41.171Z,4.17
2022-12-27T07:41:41.162Z,4.10
2022-12-27T07:42:41.134Z,4.00
2022-12-27T07:43:41.167Z,4.13
2022-12-27T07:44:41.118Z,4.08
2022-12-27T07:45:41.151Z,4.16
2022-12-27T07:46:41.105Z,4.11
2022-12-27T07:47:41.084Z,4.17
2022-12-27T07:48:41.073Z,4.14
2022-12-27T07:49:41.122Z,4.17
2022-12-27T07:50:41.062Z,4.13
2022-12-27T07:51:41.054Z,4.24
2022-12-27T07:52:41.045Z,4.29
2022-12-27T07:53:41.036Z,4.31
2022-12-27T07:54:41.013Z,4.38
2022-12-27T07:55:41.025Z,4.36
2022-12-27T07:56:41.005Z,4.43
2022-12-27T07:57:40.989Z,4.47
2022-12-27T07:58:40.966Z,4.50
2022-12-27T07:59:40.974Z,4.50
2022-12-27T08:00:40.985Z,4.50
2022-12-27T08:01:41.016Z,4.46
2022-12-27T08:02:40.950Z,4.53
2022-12-27T08:03:40.986Z,4.57
2022-12-27T08:04:40.952Z,4.57
2022-12-27T08:05:40.917Z,4.62
2022-12-27T08:06:40.913Z,4.61
2022-12-27T08:07:40.865Z,4.64
2022-12-27T08:08:40.994Z,4.68
2022-12-27T08:09:40.871Z,4.67
2022-12-27T08:10:40.843Z,4.72
2022-12-27T08:11:40.846Z,4.72
2022-12-27T08:12:40.827Z,4.75
2022-12-27T08:13:40.803Z,4.77
2022-12-27T08:14:40.888Z,4.80
2022-12-27T08:15:40.789Z,4.84
2022-12-27T08:16:40.826Z,4.96
2022-12-27T08:17:40.765Z,4.90
2022-12-27T08:18:40.749Z,4.96
2022-12-27T08:19:40.740Z,4.97
2022-12-27T08:20:40.740Z,4.97
2022-12-27T08:21:40.878Z,5.09
2022-12-27T08:22:40.712Z,5.05
2022-12-27T08:23:40.699Z,5.19
2022-12-27T08:24:40.684Z,5.19
2022-12-27T08:25:46.779Z,5.12
2022-12-27T08:26:41.704Z,5.11
2022-12-27T08:27:40.652Z,5.08
2022-12-27T08:28:40.648Z,5.12
2022-12-27T08:29:40.634Z,5.32
2022-12-27T08:30:40.647Z,5.29
2022-12-27T08:31:40.644Z,5.37
2022-12-27T08:32:40.605Z,5.35
2022-12-27T08:33:40.613Z,5.55
2022-12-27T08:34:40.585Z,5.59
2022-12-27T08:35:56.063Z,5.59
2022-12-27T08:36:57.198Z,5.67
2022-12-27T08:37:41.607Z,5.73
2022-12-27T08:38:40.538Z,6.10
2022-12-27T08:39:40.532Z,6.40
2022-12-27T08:40:40.518Z,6.64
2022-12-27T08:41:40.514Z,7.05
2022-12-27T08:42:40.500Z,7.14
2022-12-27T08:43:40.491Z,7.54
2022-12-27T08:44:40.478Z,7.55
2022-12-27T08:45:40.465Z,7.60
2022-12-27T08:46:40.609Z,7.67
2022-12-27T08:47:40.450Z,7.99
2022-12-27T08:48:40.497Z,8.12
2022-12-27T08:49:40.431Z,8.29
2022-12-27T08:50:40.408Z,8.28
2022-12-27T08:51:41.615Z,8.60
2022-12-27T08:52:40.425Z,8.63
2022-12-27T08:53:40.410Z,8.54
2022-12-27T08:54:40.366Z,8.70
2022-12-27T08:55:40.348Z,8.43
2022-12-27T08:56:40.373Z,8.42
2022-12-27T08:57:40.333Z,8.46
2022-12-27T08:58:40.323Z,8.37
2022-12-27T08:59:40.305Z,8.47
2022-12-27T09:00:40.303Z,8.70
2022-12-27T09:01:40.504Z,8.70
2022-12-27T09:02:40.448Z,8.71
2022-12-27T09:03:40.270Z,8.79
2022-12-27T09:04:40.262Z,8.65
2022-12-27T09:05:42.036Z,8.68
2022-12-27T09:06:40.246Z,8.67
2022-12-27T09:07:40.227Z,8.58
2022-12-27T09:08:40.214Z,8.50
2022-12-27T09:09:40.294Z,8.58
2022-12-27T09:10:40.196Z,8.52
2022-12-27T09:11:40.186Z,8.50
2022-12-27T09:12:40.172Z,8.75
2022-12-27T09:13:40.156Z,8.85
2022-12-27T09:14:40.183Z,8.68
2022-12-27T09:15:40.191Z,8.96
2022-12-27T09:16:40.139Z,9.20
2022-12-27T09:17:40.127Z,9.58
2022-12-27T09:18:40.114Z,9.67
2022-12-27T09:19:40.092Z,9.78
2022-12-27T09:20:40.084Z,9.78
2022-12-27T09:21:40.093Z,9.75
2022-12-27T09:22:40.077Z,9.44
2022-12-27T09:23:40.067Z,9.53
2022-12-27T09:24:40.046Z,9.88
2022-12-27T09:25:40.098Z,9.77
2022-12-27T09:26:40.057Z,9.68
2022-12-27T09:27:40.008Z,9.56
2022-12-27T09:28:39.997Z,9.23
2022-12-27T09:29:43.164Z,9.48
2022-12-27T09:30:40.992Z,9.49
2022-12-27T09:31:39.983Z,9.59
2022-12-27T09:32:39.955Z,9.50
2022-12-27T09:33:39.940Z,9.48
2022-12-27T09:34:39.948Z,9.62
2022-12-27T09:35:39.914Z,9.60
2022-12-27T09:36:39.926Z,9.44
2022-12-27T09:37:39.915Z,9.40
2022-12-27T09:38:39.889Z,9.42
2022-12-27T09:39:39.921Z,9.38
2022-12-27T09:40:39.877Z,9.19
2022-12-27T09:43:00.724Z,9.24
2022-12-27T09:43:40.833Z,9.23
2022-12-27T09:44:39.828Z,8.98
2022-12-27T09:45:39.809Z,8.94
2022-12-27T09:46:39.908Z,8.86
2022-12-27T09:47:39.803Z,8.83
2022-12-27T09:48:39.779Z,8.68
2022-12-27T09:49:39.767Z,8.76
2022-12-27T09:50:39.758Z,8.76
2022-12-27T09:51:39.761Z,8.82
2022-12-27T09:52:39.736Z,8.85
2022-12-27T09:53:39.723Z,8.88
2022-12-27T09:54:39.714Z,8.93
2022-12-27T09:55:39.704Z,8.96
2022-12-27T09:57:10.014Z,8.96
2022-12-27T09:57:40.691Z,8.89
2022-12-27T09:58:39.686Z,9.01
2022-12-27T09:59:39.669Z,9.08
2022-12-27T10:00:45.891Z,9.00
2022-12-27T10:01:40.795Z,8.96
2022-12-27T10:02:39.784Z,8.71
2022-12-27T10:03:39.615Z,8.50
2022-12-27T10:05:18.031Z,8.39
2022-12-27T10:05:40.666Z,8.34
2022-12-27T10:06:39.602Z,8.57
2022-12-27T10:07:39.581Z,8.71
2022-12-27T10:08:39.557Z,8.70
2022-12-27T10:09:39.551Z,8.63
2022-12-27T10:10:39.540Z,8.63
2022-12-27T10:11:39.580Z,8.61
2022-12-27T10:12:39.521Z,8.73
2022-12-27T10:13:39.522Z,8.82
2022-12-27T10:14:39.502Z,9.17
2022-12-27T10:15:39.525Z,9.60
2022-12-27T10:16:39.487Z,9.88
2022-12-27T10:17:39.468Z,9.98
2022-12-27T10:18:39.676Z,10.20
2022-12-27T10:19:39.446Z,10.49
2022-12-27T10:20:39.430Z,10.84
2022-12-27T10:21:39.430Z,10.87
2022-12-27T10:22:39.404Z,10.70
2022-12-27T10:23:39.409Z,11.05
2022-12-27T10:24:39.390Z,11.45
2022-12-27T10:25:39.382Z,11.53
2022-12-27T10:26:39.381Z,11.33
2022-12-27T10:27:39.355Z,11.28
2022-12-27T10:28:39.349Z,11.62
2022-12-27T10:29:39.345Z,11.59
2022-12-27T10:30:39.330Z,11.41
2022-12-27T10:31:39.350Z,10.91
2022-12-27T10:32:39.298Z,10.90
2022-12-27T10:33:39.303Z,11.21
2022-12-27T10:34:39.299Z,11.24
2022-12-27T10:35:39.270Z,11.23
2022-12-27T10:36:39.274Z,11.70
2022-12-27T10:37:39.241Z,11.98
2022-12-27T10:38:39.228Z,12.54
2022-12-27T10:39:39.281Z,12.43
2022-12-27T10:40:39.221Z,12.40
2022-12-27T10:41:39.220Z,12.71
2022-12-27T10:42:39.196Z,13.19
2022-12-27T10:43:39.180Z,12.81
2022-12-27T10:44:39.166Z,12.37
2022-12-27T10:45:39.286Z,12.56
2022-12-27T10:46:39.221Z,12.77
2022-12-27T10:47:39.131Z,13.03
2022-12-27T10:49:18.987Z,13.39
2022-12-27T10:49:40.111Z,13.12
2022-12-27T10:50:39.103Z,13.46
2022-12-27T10:51:39.121Z,13.38
2022-12-27T10:52:39.082Z,13.29
2022-12-27T10:53:39.074Z,13.57
2022-12-27T10:54:39.053Z,12.96
2022-12-27T10:55:39.065Z,12.52
2022-12-27T10:56:39.055Z,12.25
2022-12-27T10:57:39.036Z,11.97
2022-12-27T10:58:39.011Z,11.98
2022-12-27T10:59:39.031Z,12.07
2022-12-27T11:00:39.008Z,12.08
2022-12-27T11:01:39.140Z,11.88
2022-12-27T11:02:39.092Z,11.67
2022-12-27T11:03:38.975Z,11.53
2022-12-27T11:04:38.950Z,11.51
2022-12-27T11:05:38.933Z,11.17
2022-12-27T11:06:38.948Z,11.05
2022-12-27T11:07:38.919Z,10.91
2022-12-27T11:08:38.908Z,11.27
2022-12-27T11:09:38.920Z,11.45
2022-12-27T11:10:38.888Z,11.41
2022-12-27T11:11:38.896Z,11.41
2022-12-27T11:12:38.859Z,11.45
2022-12-27T11:13:38.853Z,11.24
2022-12-27T11:14:38.840Z,11.11
2022-12-27T11:15:38.837Z,10.83
2022-12-27T11:16:38.847Z,10.80
2022-12-27T11:17:38.849Z,11.06
2022-12-27T11:18:38.792Z,10.95
2022-12-27T11:19:38.782Z,10.83
2022-12-27T11:20:38.794Z,10.86
2022-12-27T11:21:38.794Z,10.73
2022-12-27T11:22:38.750Z,11.01
2022-12-27T11:23:38.744Z,11.41
2022-12-27T11:24:38.730Z,11.45
2022-12-27T11:25:38.722Z,11.69
2022-12-27T11:26:38.742Z,11.75
2022-12-27T11:27:38.698Z,11.64
2022-12-27T11:28:38.691Z,11.77
2022-12-27T11:29:38.683Z,11.90
2022-12-27T11:30:38.673Z,12.16
2022-12-27T11:31:38.722Z,12.38
2022-12-27T11:32:38.651Z,12.22
2022-12-27T11:33:38.649Z,12.00
2022-12-27T11:34:38.641Z,12.15
2022-12-27T11:35:38.616Z,12.34
2022-12-27T11:36:38.625Z,12.48
2022-12-27T11:37:38.604Z,12.00
2022-12-27T11:38:38.585Z,12.07
2022-12-27T11:39:38.566Z,12.41
2022-12-27T11:40:38.565Z,12.25
2022-12-27T11:41:38.576Z,11.84
2022-12-27T11:42:38.629Z,12.03
2022-12-27T11:43:38.523Z,12.40
2022-12-27T11:44:38.514Z,12.38
2022-12-27T11:45:38.516Z,12.11
2022-12-27T11:46:38.672Z,12.44
2022-12-27T11:47:38.491Z,12.51
2022-12-27T11:48:38.470Z,12.26
2022-12-27T11:49:38.492Z,12.34
2022-12-27T11:50:38.449Z,12.40
2022-12-27T11:51:38.476Z,12.41
2022-12-27T11:52:38.576Z,12.52
2022-12-27T11:53:38.453Z,12.69
2022-12-27T11:54:38.419Z,12.94
2022-12-27T11:55:38.545Z,13.04
2022-12-27T11:56:38.391Z,13.01
2022-12-27T11:57:38.579Z,13.24
2022-12-27T11:58:38.415Z,13.09
2022-12-27T11:59:38.353Z,12.77
2022-12-27T12:00:38.338Z,12.40
2022-12-27T12:01:38.478Z,12.03
2022-12-27T12:02:38.383Z,12.05
2022-12-27T12:03:38.343Z,11.85
2022-12-27T12:04:38.388Z,11.98
2022-12-27T12:05:38.326Z,12.01
2022-12-27T12:06:38.316Z,12.05
2022-12-27T12:07:38.260Z,12.00
2022-12-27T12:08:38.254Z,12.21
2022-12-27T12:09:38.234Z,12.26
2022-12-27T12:10:38.255Z,12.13
2022-12-27T12:11:38.234Z,12.37
2022-12-27T12:12:38.208Z,12.38
2022-12-27T12:13:38.259Z,12.41
2022-12-27T12:14:38.182Z,12.44
2022-12-27T12:15:38.173Z,12.23
2022-12-27T12:16:38.269Z,12.19
2022-12-27T12:17:38.166Z,12.29
2022-12-27T12:18:38.140Z,12.25
2022-12-27T12:19:38.164Z,12.12
2022-12-27T12:20:38.116Z,12.31
2022-12-27T12:21:38.147Z,12.55
2022-12-27T12:22:38.133Z,12.49
2022-12-27T12:23:38.083Z,12.40
2022-12-27T12:24:38.070Z,12.37
2022-12-27T12:25:38.067Z,12.46
2022-12-27T12:26:38.067Z,12.54
2022-12-27T12:27:38.041Z,12.52
2022-12-27T12:28:57.693Z,12.38
2022-12-27T12:29:39.022Z,12.34
2022-12-27T12:30:38.021Z,12.12
2022-12-27T12:31:38.065Z,11.85
2022-12-27T12:32:37.987Z,11.62
2022-12-27T12:33:37.975Z,11.60
2022-12-27T12:34:38.010Z,11.45
2022-12-27T12:35:37.953Z,11.35
2022-12-27T12:36:37.955Z,11.30
2022-12-27T12:37:37.973Z,11.20
2022-12-27T12:38:37.918Z,11.01
2022-12-27T12:39:37.913Z,10.84
2022-12-27T12:40:38.000Z,10.87
2022-12-27T12:41:37.903Z,10.76
2022-12-27T12:42:37.870Z,10.78
2022-12-27T12:43:37.872Z,10.80
2022-12-27T12:44:41.514Z,10.66
2022-12-27T12:45:37.874Z,10.73
2022-12-27T12:46:37.909Z,10.69
2022-12-27T12:47:37.930Z,10.75
2022-12-27T12:48:37.806Z,10.83
2022-12-27T12:49:37.800Z,10.80
2022-12-27T12:50:37.816Z,10.87
2022-12-27T12:51:37.807Z,10.63
2022-12-27T12:52:37.777Z,10.70
2022-12-27T12:53:37.785Z,10.63
2022-12-27T12:54:37.743Z,10.72
2022-12-27T12:55:38.898Z,10.66
2022-12-27T12:56:37.720Z,10.66
2022-12-27T12:57:38.000Z,10.58
2022-12-27T12:58:37.704Z,10.55
2022-12-27T12:59:37.722Z,10.57
2022-12-27T13:00:37.732Z,10.54
2022-12-27T13:01:37.812Z,10.49
2022-12-27T13:02:37.825Z,10.35
2022-12-27T13:03:37.712Z,10.29
2022-12-27T13:04:37.652Z,10.32
2022-12-27T13:05:37.710Z,10.39
2022-12-27T13:06:37.880Z,10.38
2022-12-27T13:07:39.663Z,10.38
2022-12-27T13:08:37.590Z,10.39
2022-12-27T13:09:37.598Z,10.44
2022-12-27T13:10:37.597Z,10.38
2022-12-27T13:11:37.578Z,10.36
2022-12-27T13:12:37.548Z,10.36
2022-12-27T13:13:37.559Z,10.38